createdAt,value
2022-10-09T00:01:11.867Z,6.70
2022-10-09T00:03:41.992Z,6.50
2022-10-09T00:06:13.779Z,6.87
2022-10-09T00:08:43.844Z,7.30
2022-10-09T00:11:14.077Z,7.07
2022-10-09T00:13:42.182Z,7.47
2022-10-09T00:16:12.632Z,7.50
2022-10-09T00:18:41.430Z,7.00
2022-10-09T00:21:20.496Z,7.00
2022-10-09T00:23:49.515Z,7.27
2022-10-09T00:26:18.323Z,7.57
2022-10-09T00:28:47.071Z,6.60
2022-10-09T00:31:16.146Z,7.50
2022-10-09T00:33:44.509Z,6.90
2022-10-09T00:36:14.721Z,7.17
2022-10-09T00:38:44.380Z,6.90
2022-10-09T00:41:16.182Z,7.20
2022-10-09T00:43:47.717Z,7.20
2022-10-09T00:46:35.595Z,6.70
2022-10-09T00:49:16.890Z,6.83
2022-10-09T00:51:46.840Z,7.60
2022-10-09T00:54:18.400Z,7.60
2022-10-09T00:56:46.766Z,7.03
2022-10-09T00:59:15.522Z,7.60
2022-10-09T01:01:43.945Z,7.13
2022-10-09T01:04:12.190Z,7.20
2022-10-09T01:06:59.682Z,6.50
2022-10-09T01:09:37.158Z,7.43
2022-10-09T01:12:13.693Z,7.73
2022-10-09T01:14:48.048Z,6.80
2022-10-09T01:17:25.905Z,6.70
2022-10-09T01:20:23.199Z,7.07
2022-10-09T01:23:04.898Z,6.37
2022-10-09T01:25:38.371Z,6.60
2022-10-09T01:28:08.903Z,6.73
2022-10-09T01:30:38.217Z,6.40
2022-10-09T01:33:07.214Z,6.70
2022-10-09T01:35:36.086Z,6.67
2022-10-09T01:38:05.733Z,7.40
2022-10-09T01:40:34.059Z,7.13
2022-10-09T01:43:02.619Z,7.30
2022-10-09T01:45:40.880Z,7.10
2022-10-09T01:48:13.696Z,6.70
2022-10-09T01:50:45.733Z,7.43
2022-10-09T01:53:19.615Z,7.07
2022-10-09T01:55:52.103Z,6.67
2022-10-09T01:58:25.175Z,7.50
2022-10-09T02:01:01.684Z,7.90
2022-10-09T02:03:31.848Z,7.10
2022-10-09T02:06:01.519Z,7.57
2022-10-09T02:08:31.896Z,6.70
2022-10-09T02:11:02.925Z,6.90
2022-10-09T02:13:31.927Z,7.07
2022-10-09T02:16:07.059Z,7.27
2022-10-09T02:18:41.067Z,6.80
2022-10-09T02:21:14.340Z,7.77
2022-10-09T02:23:44.714Z,6.83
2022-10-09T02:26:14.010Z,7.70
2022-10-09T02:28:45.794Z,7.23
2022-10-09T02:31:22.220Z,7.90
2022-10-09T02:33:56.922Z,6.37
2022-10-09T02:36:25.327Z,7.63
2022-10-09T02:38:53.679Z,7.60
2022-10-09T02:41:22.483Z,6.33
2022-10-09T02:43:50.832Z,7.20
2022-10-09T02:46:20.684Z,7.60
2022-10-09T02:48:48.933Z,7.67
2022-10-09T02:51:17.588Z,7.90
2022-10-09T02:53:46.141Z,7.57
2022-10-09T02:56:14.526Z,7.33
2022-10-09T02:58:42.746Z,7.93
2022-10-09T03:01:10.822Z,8.13
2022-10-09T03:03:40.357Z,7.53
2022-10-09T03:06:11.375Z,7.30
2022-10-09T03:08:42.263Z,8.40
2022-10-09T03:11:11.133Z,6.47
2022-10-09T03:13:40.295Z,7.10
2022-10-09T03:16:10.379Z,6.53
2022-10-09T03:18:40.622Z,6.83
2022-10-09T03:21:10.394Z,6.47
2022-10-09T03:23:38.869Z,6.17
2022-10-09T03:26:09.579Z,5.30
2022-10-09T03:28:38.895Z,4.90
2022-10-09T03:31:07.614Z,5.30
2022-10-09T03:33:36.682Z,5.07
2022-10-09T03:36:09.699Z,5.50
2022-10-09T03:38:37.880Z,5.37
2022-10-09T03:41:06.595Z,4.90
2022-10-09T03:43:35.685Z,4.60
2022-10-09T03:46:07.893Z,4.97
2022-10-09T03:48:36.601Z,4.30
2022-10-09T03:51:06.506Z,4.70
2022-10-09T03:53:34.825Z,4.23
2022-10-09T03:56:02.931Z,5.00
2022-10-09T03:58:31.146Z,4.50
2022-10-09T04:00:59.384Z,4.27
2022-10-09T04:03:28.184Z,4.30
2022-10-09T04:05:56.336Z,4.53
2022-10-09T04:08:25.947Z,3.77
2022-10-09T04:10:58.457Z,4.07
2022-10-09T04:13:26.687Z,4.20
2022-10-09T04:15:56.016Z,3.90
2022-10-09T04:18:24.736Z,4.20
2022-10-09T04:20:53.915Z,4.03
2022-10-09T04:23:27.916Z,3.80
2022-10-09T04:25:59.619Z,4.10
2022-10-09T04:28:28.649Z,4.10
2022-10-09T04:30:57.485Z,4.00
2022-10-09T04:33:26.164Z,4.10
2022-10-09T04:35:56.038Z,4.07
2022-10-09T04:38:25.300Z,4.10
2022-10-09T04:41:02.858Z,4.17
2022-10-09T04:43:31.827Z,4.50
2022-10-09T04:46:00.458Z,4.10
2022-10-09T04:48:28.647Z,4.30
2022-10-09T04:50:56.823Z,4.13
2022-10-09T04:53:24.951Z,4.10
2022-10-09T04:55:53.175Z,4.00
2022-10-09T04:58:22.712Z,4.03
2022-10-09T05:00:50.990Z,4.37
2022-10-09T05:03:19.226Z,4.30
2022-10-09T05:05:47.730Z,4.23
2022-10-09T05:08:15.838Z,4.40
2022-10-09T05:10:44.072Z,4.03
2022-10-09T05:13:12.344Z,5.30
2022-10-09T05:15:43.935Z,4.87
2022-10-09T05:18:12.182Z,4.63
2022-10-09T05:20:42.714Z,5.03
2022-10-09T05:23:10.812Z,4.30
2022-10-09T05:25:39.130Z,4.73
2022-10-09T05:28:07.527Z,4.93
2022-10-09T05:30:36.102Z,5.07
2022-10-09T05:33:05.657Z,4.83
2022-10-09T05:35:33.848Z,4.87
2022-10-09T05:38:01.982Z,4.53
2022-10-09T05:40:30.159Z,5.20
2022-10-09T05:43:00.385Z,4.73
2022-10-09T05:45:28.771Z,5.00
2022-10-09T05:47:56.918Z,4.67
2022-10-09T05:50:26.548Z,4.57
2022-10-09T05:52:55.000Z,5.00
2022-10-09T05:55:23.500Z,4.93
2022-10-09T05:57:51.636Z,5.00
2022-10-09T06:00:19.905Z,4.50
2022-10-09T06:02:48.302Z,4.77
2022-10-09T06:05:17.097Z,4.73
2022-10-09T06:07:47.162Z,4.80
2022-10-09T06:10:15.641Z,6.03
2022-10-09T06:12:43.763Z,6.30
2022-10-09T06:15:12.211Z,7.03
2022-10-09T06:17:40.501Z,6.90
2022-10-09T06:20:09.135Z,7.50
2022-10-09T06:22:37.238Z,6.60
2022-10-09T06:25:07.806Z,6.57
2022-10-09T06:27:35.925Z,5.60
2022-10-09T06:30:04.190Z,5.70
2022-10-09T06:32:33.255Z,5.53
2022-10-09T06:35:01.346Z,5.07
2022-10-09T06:37:29.525Z,5.03
2022-10-09T06:39:57.610Z,5.50
2022-10-09T06:42:27.120Z,5.63
2022-10-09T06:44:55.264Z,5.20
2022-10-09T06:47:23.368Z,5.23
2022-10-09T06:49:51.717Z,5.17
2022-10-09T06:52:19.818Z,5.17
2022-10-09T06:54:47.946Z,5.50
2022-10-09T06:57:16.019Z,5.10
2022-10-09T06:59:45.830Z,5.13
2022-10-09T07:02:13.969Z,5.30
2022-10-09T07:04:42.148Z,4.77
2022-10-09T07:07:10.244Z,4.80
2022-10-09T07:09:38.606Z,4.60
2022-10-09T07:12:06.753Z,4.93
2022-10-09T07:14:34.949Z,5.40
2022-10-09T07:17:05.855Z,5.63
2022-10-09T07:19:33.906Z,4.60
2022-10-09T07:22:02.085Z,5.43
2022-10-09T07:24:30.379Z,4.87
2022-10-09T07:26:58.490Z,5.03
2022-10-09T07:29:26.609Z,4.60
2022-10-09T07:31:54.813Z,5.30
2022-10-09T07:34:24.476Z,5.67
2022-10-09T07:36:54.462Z,5.30
2022-10-09T07:39:23.523Z,4.83
2022-10-09T07:41:52.901Z,5.37
2022-10-09T07:44:21.012Z,5.13
2022-10-09T07:46:51.794Z,5.00
2022-10-09T07:49:20.065Z,4.53
2022-10-09T07:51:51.879Z,4.40
2022-10-09T07:54:20.029Z,5.13
2022-10-09T07:56:48.069Z,4.73
2022-10-09T07:59:17.345Z,4.13
2022-10-09T08:01:45.887Z,4.80
2022-10-09T08:04:14.001Z,4.23
2022-10-09T08:06:43.420Z,5.10
2022-10-09T08:09:13.034Z,4.70
2022-10-09T08:11:41.269Z,5.03
2022-10-09T08:14:16.749Z,4.77
2022-10-09T08:16:47.539Z,4.63
2022-10-09T08:19:15.703Z,4.97
2022-10-09T08:21:43.791Z,4.80
2022-10-09T08:24:13.545Z,5.07
2022-10-09T08:26:42.541Z,5.83
2022-10-09T08:29:14.140Z,4.80
2022-10-09T08:31:42.382Z,5.10
2022-10-09T08:34:10.696Z,4.70
2022-10-09T08:36:38.822Z,5.50
2022-10-09T08:39:07.275Z,5.93
2022-10-09T08:41:44.387Z,4.80
2022-10-09T08:44:16.896Z,5.13
2022-10-09T08:46:57.904Z,4.97
2022-10-09T08:49:32.258Z,5.27
2022-10-09T08:52:13.155Z,5.33
2022-10-09T08:54:41.501Z,5.40
2022-10-09T08:57:15.884Z,6.10
2022-10-09T08:59:44.818Z,5.77
2022-10-09T09:02:33.182Z,5.27
2022-10-09T09:05:12.535Z,5.20
2022-10-09T09:07:47.550Z,6.07
2022-10-09T09:10:23.604Z,5.13
2022-10-09T09:12:58.253Z,5.30
2022-10-09T09:15:41.301Z,5.43
2022-10-09T09:18:24.153Z,4.93
2022-10-09T09:20:54.721Z,5.53
2022-10-09T09:23:27.496Z,5.20
2022-10-09T09:25:55.648Z,5.43
2022-10-09T09:28:29.640Z,5.47
2022-10-09T09:31:01.987Z,5.40
2022-10-09T09:33:44.410Z,5.33
2022-10-09T09:36:25.121Z,5.40
2022-10-09T09:39:36.288Z,5.90
2022-10-09T09:41:45.095Z,5.83
2022-10-09T09:44:16.508Z,5.53
2022-10-09T09:46:47.571Z,6.03
2022-10-09T09:49:20.300Z,6.17
2022-10-09T09:51:50.973Z,5.57
2022-10-09T09:54:22.588Z,5.53
2022-10-09T09:57:12.110Z,5.30
2022-10-09T09:59:44.887Z,5.63
2022-10-09T10:02:15.549Z,5.10
2022-10-09T10:04:55.542Z,5.23
2022-10-09T10:07:32.135Z,5.70
2022-10-09T10:10:05.577Z,5.67
2022-10-09T10:12:34.250Z,5.87
2022-10-09T10:15:07.064Z,5.47
2022-10-09T10:17:36.720Z,5.27
2022-10-09T10:20:07.977Z,6.27
2022-10-09T10:22:37.189Z,5.90
2022-10-09T10:25:06.386Z,6.00
2022-10-09T10:27:39.311Z,5.73
2022-10-09T10:30:15.184Z,5.87
2022-10-09T10:32:52.034Z,6.20
2022-10-09T10:35:25.070Z,6.30
2022-10-09T10:38:00.139Z,6.10
2022-10-09T10:40:33.027Z,6.07
2022-10-09T10:43:21.191Z,5.93
2022-10-09T10:46:03.886Z,6.20
2022-10-09T10:48:34.957Z,6.20
2022-10-09T10:51:19.050Z,6.50
2022-10-09T10:54:01.018Z,5.80
2022-10-09T10:56:32.402Z,6.30
2022-10-09T10:59:24.437Z,6.00
2022-10-09T11:02:02.621Z,5.00
2022-10-09T11:04:45.633Z,5.40
2022-10-09T11:07:22.230Z,5.77
2022-10-09T11:10:02.298Z,5.87
2022-10-09T11:12:54.543Z,5.73
2022-10-09T11:15:34.381Z,5.87
2022-10-09T11:18:22.438Z,5.83
2022-10-09T11:21:04.086Z,6.60
2022-10-09T11:23:46.688Z,6.13
2022-10-09T11:26:25.751Z,6.50
2022-10-09T11:28:59.447Z,7.47
2022-10-09T11:31:31.687Z,6.90
2022-10-09T11:34:07.346Z,6.73
2022-10-09T11:36:41.449Z,6.73
2022-10-09T11:39:15.630Z,6.47
2022-10-09T11:41:46.707Z,5.97
2022-10-09T11:44:34.174Z,6.50
2022-10-09T11:47:09.962Z,6.20
2022-10-09T11:49:51.792Z,6.23
2022-10-09T11:52:29.892Z,5.53
2022-10-09T11:55:09.674Z,5.67
2022-10-09T11:57:37.801Z,5.33
2022-10-09T12:00:08.581Z,5.80
2022-10-09T12:02:38.327Z,5.60
2022-10-09T12:05:20.211Z,5.57
2022-10-09T12:07:48.499Z,5.83
2022-10-09T12:10:29.066Z,5.90
2022-10-09T12:12:59.939Z,5.47
2022-10-09T12:15:37.004Z,5.60
2022-10-09T12:18:17.888Z,5.37
2022-10-09T12:20:51.220Z,5.90
2022-10-09T12:23:27.075Z,6.20
2022-10-09T12:25:57.839Z,5.57
2022-10-09T12:28:30.621Z,6.10
2022-10-09T12:31:01.813Z,6.17
2022-10-09T12:33:34.986Z,5.87
2022-10-09T12:36:12.795Z,5.20
2022-10-09T12:38:41.019Z,6.07
2022-10-09T12:41:20.086Z,5.77
2022-10-09T12:43:49.664Z,5.83
2022-10-09T12:46:28.149Z,5.50
2022-10-09T12:48:56.818Z,5.90
2022-10-09T12:51:28.287Z,5.27
2022-10-09T12:53:56.852Z,6.03
2022-10-09T12:56:29.278Z,5.40
2022-10-09T12:58:59.840Z,5.40
2022-10-09T13:01:28.377Z,5.20
2022-10-09T13:03:58.786Z,5.87
2022-10-09T13:06:31.944Z,4.97
2022-10-09T13:09:03.482Z,5.40
2022-10-09T13:11:38.149Z,5.50
2022-10-09T13:14:06.505Z,5.20
2022-10-09T13:16:42.069Z,5.60
2022-10-09T13:19:24.561Z,5.23
2022-10-09T13:22:20.043Z,5.60
2022-10-09T13:24:48.248Z,5.40
2022-10-09T13:27:19.438Z,5.90
2022-10-09T13:29:48.482Z,5.00
2022-10-09T13:32:18.294Z,6.00
2022-10-09T13:34:47.900Z,5.53
2022-10-09T13:37:20.331Z,5.57
2022-10-09T13:39:48.512Z,6.03
2022-10-09T13:42:17.594Z,5.67
2022-10-09T13:44:45.743Z,6.17
2022-10-09T13:47:13.833Z,5.63
2022-10-09T13:49:42.162Z,6.77
2022-10-09T13:52:10.623Z,6.33
2022-10-09T13:54:40.207Z,6.33
2022-10-09T13:57:09.138Z,7.13
2022-10-09T13:59:38.043Z,5.60
2022-10-09T14:02:06.394Z,5.77
2022-10-09T14:04:34.568Z,5.73
2022-10-09T14:07:02.807Z,6.17
2022-10-09T14:09:31.336Z,5.83
2022-10-09T14:12:06.645Z,6.40
2022-10-09T14:14:34.813Z,6.80
2022-10-09T14:17:03.009Z,6.40
2022-10-09T14:19:31.176Z,5.90
2022-10-09T14:22:00.671Z,6.60
2022-10-09T14:24:29.288Z,6.43
2022-10-09T14:26:57.484Z,6.07
2022-10-09T14:29:27.041Z,6.00
2022-10-09T14:31:55.183Z,7.10
2022-10-09T14:34:23.481Z,6.10
2022-10-09T14:36:52.456Z,6.17
2022-10-09T14:39:20.607Z,6.03
2022-10-09T14:41:49.231Z,5.77
2022-10-09T14:44:17.542Z,5.67
2022-10-09T14:46:49.584Z,6.00
2022-10-09T14:49:17.798Z,6.40
2022-10-09T14:51:46.552Z,5.90
2022-10-09T14:54:15.294Z,6.83
2022-10-09T14:56:43.687Z,5.73
2022-10-09T14:59:13.630Z,6.00
2022-10-09T15:01:41.808Z,5.60
2022-10-09T15:04:11.546Z,5.70
2022-10-09T15:06:40.138Z,5.90
2022-10-09T15:09:09.018Z,6.23
2022-10-09T15:11:37.852Z,6.67
2022-10-09T15:14:06.483Z,6.40
2022-10-09T15:16:34.768Z,6.90
2022-10-09T15:19:04.658Z,6.50
2022-10-09T15:21:37.407Z,7.60
2022-10-09T15:24:06.327Z,6.97
2022-10-09T15:26:36.809Z,7.77
2022-10-09T15:29:06.804Z,8.43
2022-10-09T15:31:36.652Z,9.80
2022-10-09T15:34:06.364Z,9.23
2022-10-09T15:36:39.928Z,9.07
2022-10-09T15:39:09.160Z,10.20
2022-10-09T15:41:39.588Z,9.93
2022-10-09T15:44:13.982Z,8.53
2022-10-09T15:46:42.059Z,10.00
2022-10-09T15:49:10.477Z,9.40
2022-10-09T15:51:40.622Z,7.97
2022-10-09T15:54:08.703Z,7.67
2022-10-09T15:56:39.902Z,8.20
2022-10-09T15:59:10.705Z,7.73
2022-10-09T16:01:38.954Z,7.90
2022-10-09T16:04:07.225Z,7.93
2022-10-09T16:06:35.394Z,8.00
2022-10-09T16:09:05.091Z,8.73
2022-10-09T16:11:34.766Z,17.27
2022-10-09T16:14:04.420Z,14.23
2022-10-09T16:16:32.541Z,13.30
2022-10-09T16:19:01.581Z,14.53
2022-10-09T16:21:30.578Z,11.20
2022-10-09T16:24:00.183Z,9.60
2022-10-09T16:26:30.576Z,9.23
2022-10-09T16:29:00.202Z,8.10
2022-10-09T16:31:31.373Z,8.37
2022-10-09T16:34:00.055Z,8.83
2022-10-09T16:36:28.815Z,9.10
2022-10-09T16:38:58.220Z,8.90
2022-10-09T16:41:27.196Z,9.90
2022-10-09T16:43:59.984Z,12.57
2022-10-09T16:46:30.381Z,7.87
2022-10-09T16:48:59.911Z,7.80
2022-10-09T16:51:30.226Z,7.80
2022-10-09T16:54:00.815Z,6.50
2022-10-09T16:56:30.906Z,7.70
2022-10-09T16:59:03.271Z,7.93
2022-10-09T17:01:32.330Z,7.20
2022-10-09T17:04:01.792Z,8.33
2022-10-09T17:06:29.925Z,7.20
2022-10-09T17:08:59.850Z,8.10
2022-10-09T17:11:29.771Z,8.77
2022-10-09T17:13:58.535Z,7.70
2022-10-09T17:16:30.646Z,7.83
2022-10-09T17:18:58.984Z,8.13
2022-10-09T17:21:31.014Z,7.97
2022-10-09T17:24:07.726Z,8.37
2022-10-09T17:26:36.657Z,9.30
2022-10-09T17:29:05.437Z,8.43
2022-10-09T17:31:35.725Z,7.90
2022-10-09T17:34:05.620Z,8.10
2022-10-09T17:36:37.732Z,7.73
2022-10-09T17:39:08.373Z,6.67
2022-10-09T17:41:37.100Z,7.00
2022-10-09T17:44:05.843Z,6.13
2022-10-09T17:46:35.305Z,6.40
2022-10-09T17:49:03.506Z,7.47
2022-10-09T17:51:33.817Z,7.20
2022-10-09T17:54:06.931Z,7.93
2022-10-09T17:56:37.817Z,8.03
2022-10-09T17:59:06.395Z,8.60
2022-10-09T18:01:36.980Z,7.10
2022-10-09T18:04:05.637Z,8.97
2022-10-09T18:06:36.420Z,7.93
2022-10-09T18:09:05.227Z,7.93
2022-10-09T18:11:35.858Z,7.27
2022-10-09T18:14:04.067Z,6.70
2022-10-09T18:16:37.871Z,7.37
2022-10-09T18:19:09.694Z,7.57
2022-10-09T18:21:40.013Z,7.37
2022-10-09T18:24:08.235Z,8.00
2022-10-09T18:26:36.453Z,7.37
2022-10-09T18:29:05.870Z,7.37
2022-10-09T18:31:35.204Z,7.23
2022-10-09T18:34:03.400Z,6.60
2022-10-09T18:36:34.814Z,6.70
2022-10-09T18:39:05.821Z,6.40
2022-10-09T18:41:34.168Z,7.50
2022-10-09T18:44:03.065Z,7.43
2022-10-09T18:46:37.202Z,6.53
2022-10-09T18:49:09.659Z,6.47
2022-10-09T18:51:40.959Z,7.03
2022-10-09T18:54:13.233Z,6.53
2022-10-09T18:56:44.211Z,6.33
2022-10-09T18:59:15.143Z,5.70
2022-10-09T19:01:43.236Z,6.37
2022-10-09T19:04:11.702Z,5.90
2022-10-09T19:06:41.299Z,6.20
2022-10-09T19:09:09.332Z,5.80
2022-10-09T19:11:37.444Z,6.40
2022-10-09T19:14:05.837Z,6.10
2022-10-09T19:16:37.017Z,5.70
2022-10-09T19:19:05.445Z,6.57
2022-10-09T19:21:33.581Z,5.80
2022-10-09T19:24:03.558Z,5.90
2022-10-09T19:26:33.068Z,5.60
2022-10-09T19:29:01.689Z,5.90
2022-10-09T19:31:29.757Z,6.00
2022-10-09T19:34:00.793Z,6.23
2022-10-09T19:36:28.930Z,6.23
2022-10-09T19:38:57.306Z,5.97
2022-10-09T19:41:26.908Z,6.17
2022-10-09T19:43:55.149Z,6.77
2022-10-09T19:46:23.796Z,7.00
2022-10-09T19:48:52.228Z,6.00
2022-10-09T19:51:22.221Z,6.17
2022-10-09T19:53:52.120Z,6.70
2022-10-09T19:56:22.337Z,5.97
2022-10-09T19:58:52.385Z,6.67
2022-10-09T20:01:22.561Z,5.63
2022-10-09T20:03:55.558Z,5.97
2022-10-09T20:06:23.636Z,5.87
2022-10-09T20:08:51.997Z,6.50
2022-10-09T20:11:21.403Z,6.17
2022-10-09T20:13:55.708Z,6.30
2022-10-09T20:16:25.976Z,6.60
2022-10-09T20:18:55.964Z,6.00
2022-10-09T20:21:24.112Z,6.10
2022-10-09T20:23:52.215Z,5.70
2022-10-09T20:26:22.664Z,5.40
2022-10-09T20:28:53.947Z,5.70
2022-10-09T20:31:24.265Z,5.60
2022-10-09T20:33:53.615Z,5.70
2022-10-09T20:36:25.357Z,6.40
2022-10-09T20:38:56.565Z,5.87
2022-10-09T20:41:24.734Z,6.40
2022-10-09T20:43:55.687Z,6.20
2022-10-09T20:46:25.353Z,6.10
2022-10-09T20:48:53.931Z,5.80
2022-10-09T20:51:23.115Z,4.90
2022-10-09T20:53:55.847Z,5.40
2022-10-09T20:56:26.317Z,6.07
2022-10-09T20:58:56.044Z,5.10
2022-10-09T21:01:24.789Z,4.80
2022-10-09T21:03:53.490Z,5.43
2022-10-09T21:06:23.217Z,5.60
2022-10-09T21:08:51.646Z,6.27
2022-10-09T21:11:20.315Z,5.90
2022-10-09T21:13:48.882Z,5.80
2022-10-09T21:16:21.225Z,5.70
2022-10-09T21:18:55.045Z,5.40
2022-10-09T21:21:23.232Z,5.80
2022-10-09T21:23:52.254Z,6.30
2022-10-09T21:26:21.876Z,5.87
2022-10-09T21:28:52.447Z,6.10
2022-10-09T21:31:28.488Z,5.50
2022-10-09T21:33:57.411Z,6.37
2022-10-09T21:36:33.864Z,6.50
2022-10-09T21:39:02.292Z,6.77
2022-10-09T21:41:30.449Z,6.90
2022-10-09T21:43:58.598Z,6.70
2022-10-09T21:46:28.414Z,7.10
2022-10-09T21:48:56.753Z,7.60
2022-10-09T21:51:25.122Z,7.63
2022-10-09T21:53:54.747Z,9.23
2022-10-09T21:56:23.692Z,7.93
2022-10-09T21:58:52.286Z,8.90
2022-10-09T22:01:20.479Z,9.50
2022-10-09T22:03:49.975Z,8.80
2022-10-09T22:06:19.496Z,8.63
2022-10-09T22:08:48.033Z,9.50
2022-10-09T22:11:16.924Z,8.60
2022-10-09T22:13:45.177Z,9.40
2022-10-09T22:16:15.179Z,9.43
2022-10-09T22:18:43.578Z,10.00
2022-10-09T22:21:15.132Z,10.17
2022-10-09T22:23:43.609Z,10.93
2022-10-09T22:26:14.334Z,10.93
2022-10-09T22:28:42.869Z,10.77
2022-10-09T22:31:15.427Z,10.90
2022-10-09T22:33:43.576Z,11.27
2022-10-09T22:36:15.644Z,11.67
2022-10-09T22:38:44.912Z,11.30
2022-10-09T22:41:15.346Z,11.37
2022-10-09T22:43:45.812Z,11.60
2022-10-09T22:46:15.893Z,10.83
2022-10-09T22:48:44.740Z,10.97
2022-10-09T22:51:16.345Z,10.70
2022-10-09T22:53:45.486Z,11.20
2022-10-09T22:56:17.660Z,10.27
2022-10-09T22:58:46.737Z,10.40
2022-10-09T23:01:18.287Z,10.43
2022-10-09T23:03:46.605Z,11.00
2022-10-09T23:06:18.226Z,11.63
2022-10-09T23:08:48.614Z,11.20
2022-10-09T23:11:18.308Z,11.67
2022-10-09T23:13:47.330Z,10.50
2022-10-09T23:16:16.317Z,10.80
2022-10-09T23:18:45.280Z,12.97
2022-10-09T23:21:17.628Z,11.17
2022-10-09T23:23:46.340Z,10.47
2022-10-09T23:26:16.598Z,10.90
2022-10-09T23:28:45.594Z,10.37
2022-10-09T23:31:15.146Z,11.37
2022-10-09T23:33:45.024Z,10.93
2022-10-09T23:36:14.939Z,8.80
2022-10-09T23:38:45.138Z,10.00
2022-10-09T23:41:15.916Z,9.70
2022-10-09T23:43:45.341Z,10.40
2022-10-09T23:46:15.003Z,10.83
2022-10-09T23:48:43.998Z,10.47
2022-10-09T23:51:12.991Z,10.43
2022-10-09T23:53:42.346Z,10.57
2022-10-09T23:56:17.649Z,10.70
2022-10-09T23:58:45.929Z,10.20
